createdAt,value
2022-08-29T00:05:25.093Z,97828.53
2022-08-29T00:15:28.253Z,97829.53
2022-08-29T00:25:31.630Z,97837.09
2022-08-29T00:35:38.163Z,97835.06
2022-08-29T00:45:51.173Z,97836.56
2022-08-29T00:55:53.538Z,97829.06
2022-08-29T01:05:55.991Z,97834.91
2022-08-29T01:15:59.417Z,97833.66
2022-08-29T01:26:04.310Z,97832.69
2022-08-29T01:36:08.384Z,97840.47
2022-08-29T01:46:13.189Z,97844.87
2022-08-29T01:56:22.709Z,97851.31
2022-08-29T02:06:26.576Z,97848.44
2022-08-29T02:16:30.326Z,97852.41
2022-08-29T02:26:32.868Z,97844.59
2022-08-29T02:36:36.468Z,97853.97
2022-08-29T02:46:39.125Z,97859.53
2022-08-29T02:56:42.293Z,97855.78
2022-08-29T03:06:44.815Z,97854.53
2022-08-29T03:16:47.282Z,97854.63
2022-08-29T03:26:56.360Z,97860.50
2022-08-29T03:37:00.558Z,97846.66
2022-08-29T03:47:03.192Z,97843.22
2022-08-29T03:57:07.373Z,97833.78
2022-08-29T04:07:13.131Z,97842.31
2022-08-29T04:17:15.532Z,97841.84
2022-08-29T04:27:17.874Z,97846.03
2022-08-29T04:37:20.412Z,97865.34
2022-08-29T04:47:22.850Z,97874.63
2022-08-29T04:57:25.460Z,97885.00
2022-08-29T05:07:28.098Z,97895.88
2022-08-29T05:17:30.700Z,97911.34
2022-08-29T05:27:33.445Z,97910.75
2022-08-29T05:37:39.096Z,97915.31
2022-08-29T05:47:44.003Z,97928.72
2022-08-29T05:57:50.418Z,97934.34
2022-08-29T06:07:55.176Z,97948.06
2022-08-29T06:17:58.513Z,97968.81
2022-08-29T06:28:03.117Z,97971.22
2022-08-29T06:38:21.730Z,97979.50
2022-08-29T06:48:29.565Z,97975.72
2022-08-29T06:58:36.865Z,97983.56
2022-08-29T07:08:55.452Z,97986.41
2022-08-29T07:19:00.742Z,97981.75
2022-08-29T07:29:19.580Z,97979.06
2022-08-29T07:50:32.913Z,97978.12
2022-08-29T08:00:43.556Z,97983.06
2022-08-29T08:10:55.119Z,98003.44
2022-08-29T08:21:00.815Z,97990.09
2022-08-29T08:31:18.274Z,97994.69
2022-08-29T08:53:27.771Z,97995.09
2022-08-29T09:03:39.147Z,98004.31
2022-08-29T09:14:16.100Z,97990.53
2022-08-29T09:36:34.274Z,97983.72
2022-08-29T09:47:28.956Z,97989.97
2022-08-29T09:57:51.111Z,97986.03
2022-08-29T10:29:41.606Z,97963.78
2022-08-29T10:40:19.233Z,97957.44
2022-08-29T10:50:53.819Z,97959.37
2022-08-29T11:01:26.382Z,97952.16
2022-08-29T11:11:51.328Z,97947.19
2022-08-29T11:22:14.854Z,97954.56
2022-08-29T11:33:02.887Z,97940.19
2022-08-29T11:43:23.033Z,97940.94
2022-08-29T11:53:38.177Z,97938.16
2022-08-29T12:03:51.746Z,97924.62
2022-08-29T12:14:01.441Z,97921.31
2022-08-29T12:24:31.084Z,97914.06
2022-08-29T12:34:54.043Z,97904.59
2022-08-29T12:45:45.057Z,97902.66
2022-08-29T13:06:22.300Z,97896.56
2022-08-29T13:16:31.842Z,97881.41
2022-08-29T13:38:16.427Z,97858.19
2022-08-29T13:48:58.061Z,97855.59
2022-08-29T13:59:02.948Z,97849.00
2022-08-29T14:09:11.052Z,97829.34
2022-08-29T14:19:17.194Z,97837.81
2022-08-29T14:29:24.550Z,97830.84
2022-08-29T14:39:35.744Z,97811.59
2022-08-29T14:49:40.677Z,97796.91
2022-08-29T14:59:47.127Z,97793.69
2022-08-29T15:09:51.409Z,97793.03
2022-08-29T15:30:23.261Z,97779.56
2022-08-29T15:40:26.999Z,97767.37
2022-08-29T15:50:30.288Z,97751.53
2022-08-29T16:00:34.914Z,97738.09
2022-08-29T16:10:38.555Z,97718.72
2022-08-29T16:20:41.777Z,97723.19
2022-08-29T16:30:46.316Z,97727.88
2022-08-29T16:40:49.452Z,97724.59
2022-08-29T16:50:54.991Z,97722.97
2022-08-29T17:00:58.331Z,97729.87
2022-08-29T17:11:01.101Z,97736.09
2022-08-29T17:21:04.805Z,97729.72
2022-08-29T17:31:08.851Z,97730.66
2022-08-29T17:41:17.322Z,97730.97
2022-08-29T17:51:20.287Z,97733.22
2022-08-29T18:01:25.942Z,97749.38
2022-08-29T18:11:39.758Z,97744.81
2022-08-29T18:21:44.716Z,97753.78
2022-08-29T18:31:48.018Z,97753.81
2022-08-29T18:41:52.624Z,97750.63
2022-08-29T18:51:55.293Z,97757.59
2022-08-29T19:01:58.096Z,97777.44
2022-08-29T19:12:01.037Z,97781.69
2022-08-29T19:22:04.106Z,97797.28
2022-08-29T19:32:07.739Z,97790.78
2022-08-29T19:42:10.341Z,97791.88
2022-08-29T19:52:19.230Z,97803.16
2022-08-29T20:02:21.888Z,97803.06
2022-08-29T20:12:24.875Z,97818.31
2022-08-29T20:22:29.870Z,97820.59
2022-08-29T20:32:32.839Z,97824.50
2022-08-29T20:42:35.620Z,97814.84
2022-08-29T20:52:38.666Z,97823.84
2022-08-29T21:03:00.413Z,97821.78
2022-08-29T21:13:03.522Z,97826.72
2022-08-29T21:23:08.880Z,97833.47
2022-08-29T21:33:16.128Z,97829.56
2022-08-29T21:43:20.049Z,97836.75
2022-08-29T21:53:23.424Z,97844.44
2022-08-29T22:03:25.775Z,97838.28
2022-08-29T22:13:28.344Z,97845.16
2022-08-29T22:23:31.209Z,97841.22
2022-08-29T22:33:33.714Z,97842.88
2022-08-29T22:43:36.911Z,97852.47
2022-08-29T22:53:39.533Z,97861.44
2022-08-29T23:03:42.000Z,97861.06
2022-08-29T23:13:45.581Z,97870.62
2022-08-29T23:23:48.699Z,97871.88
2022-08-29T23:33:52.372Z,97890.09
2022-08-29T23:43:54.784Z,97895.81
2022-08-29T23:53:57.686Z,97889.66
